sensor_id;sensor_type;location;lat;lon;timestamp;P1;durP1;ratioP1;P2;durP2;ratioP2
80249;SDS011;69561;37.974;23.708;2023-06-14T00:01:46;3.72;;;1.80;;
80249;SDS011;69561;37.974;23.708;2023-06-14T00:04:12;1.92;;;1.67;;
80249;SDS011;69561;37.974;23.708;2023-06-14T00:06:38;3.30;;;1.90;;
80249;SDS011;69561;37.974;23.708;2023-06-14T00:09:06;2.53;;;1.65;;
80249;SDS011;69561;37.974;23.708;2023-06-14T00:11:33;1.80;;;1.50;;
80249;SDS011;69561;37.974;23.708;2023-06-14T00:13:59;3.80;;;1.80;;
80249;SDS011;69561;37.974;23.708;2023-06-14T00:16:25;2.40;;;1.73;;
80249;SDS011;69561;37.974;23.708;2023-06-14T00:18:51;1.73;;;1.48;;
80249;SDS011;69561;37.974;23.708;2023-06-14T00:21:17;1.88;;;1.60;;
80249;SDS011;69561;37.974;23.708;2023-06-14T00:23:43;1.70;;;1.60;;
80249;SDS011;69561;37.974;23.708;2023-06-14T00:26:08;1.92;;;1.45;;
80249;SDS011;69561;37.974;23.708;2023-06-14T00:28:34;2.15;;;1.75;;
80249;SDS011;69561;37.974;23.708;2023-06-14T00:31:00;2.22;;;1.63;;
80249;SDS011;69561;37.974;23.708;2023-06-14T00:33:26;1.90;;;1.67;;
80249;SDS011;69561;37.974;23.708;2023-06-14T00:35:51;1.50;;;1.40;;
80249;SDS011;69561;37.974;23.708;2023-06-14T00:38:19;2.90;;;1.67;;
80249;SDS011;69561;37.974;23.708;2023-06-14T00:40:46;2.53;;;1.55;;
80249;SDS011;69561;37.974;23.708;2023-06-14T00:43:12;1.80;;;1.60;;
80249;SDS011;69561;37.974;23.708;2023-06-14T00:45:37;2.10;;;1.67;;
80249;SDS011;69561;37.974;23.708;2023-06-14T00:48:03;1.67;;;1.58;;
80249;SDS011;69561;37.974;23.708;2023-06-14T00:50:31;2.38;;;1.70;;
80249;SDS011;69561;37.974;23.708;2023-06-14T00:52:58;2.17;;;1.50;;
80249;SDS011;69561;37.974;23.708;2023-06-14T00:55:26;2.13;;;1.67;;
80249;SDS011;69561;37.974;23.708;2023-06-14T00:57:52;2.15;;;1.70;;
80249;SDS011;69561;37.974;23.708;2023-06-14T01:00:19;1.70;;;1.60;;
80249;SDS011;69561;37.974;23.708;2023-06-14T01:02:45;2.00;;;1.52;;
80249;SDS011;69561;37.974;23.708;2023-06-14T01:05:10;1.75;;;1.50;;
80249;SDS011;69561;37.974;23.708;2023-06-14T01:07:46;3.03;;;1.63;;
80249;SDS011;69561;37.974;23.708;2023-06-14T01:15:35;1.60;;;1.50;;
80249;SDS011;69561;37.974;23.708;2023-06-14T01:18:03;2.58;;;1.70;;
80249;SDS011;69561;37.974;23.708;2023-06-14T01:20:30;2.05;;;1.80;;
80249;SDS011;69561;37.974;23.708;2023-06-14T01:22:58;1.50;;;1.40;;
80249;SDS011;69561;37.974;23.708;2023-06-14T01:25:24;2.10;;;1.67;;
80249;SDS011;69561;37.974;23.708;2023-06-14T01:27:52;1.67;;;1.40;;
80249;SDS011;69561;37.974;23.708;2023-06-14T01:30:22;4.50;;;1.60;;
80249;SDS011;69561;37.974;23.708;2023-06-14T01:32:50;3.08;;;1.40;;
80249;SDS011;69561;37.974;23.708;2023-06-14T01:35:19;2.50;;;1.60;;
80249;SDS011;69561;37.974;23.708;2023-06-14T01:37:46;1.88;;;1.70;;
80249;SDS011;69561;37.974;23.708;2023-06-14T01:40:13;1.98;;;1.70;;
80249;SDS011;69561;37.974;23.708;2023-06-14T01:42:40;2.75;;;1.98;;
80249;SDS011;69561;37.974;23.708;2023-06-14T01:45:07;2.60;;;1.75;;
80249;SDS011;69561;37.974;23.708;2023-06-14T01:47:35;2.25;;;1.65;;
80249;SDS011;69561;37.974;23.708;2023-06-14T01:50:03;4.70;;;1.60;;
80249;SDS011;69561;37.974;23.708;2023-06-14T01:52:30;4.53;;;1.63;;
80249;SDS011;69561;37.974;23.708;2023-06-14T01:54:56;2.00;;;1.60;;
80249;SDS011;69561;37.974;23.708;2023-06-14T01:57:23;2.95;;;1.58;;
80249;SDS011;69561;37.974;23.708;2023-06-14T01:59:50;2.22;;;1.50;;
80249;SDS011;69561;37.974;23.708;2023-06-14T02:02:16;3.42;;;1.60;;
80249;SDS011;69561;37.974;23.708;2023-06-14T02:04:42;2.50;;;1.63;;
80249;SDS011;69561;37.974;23.708;2023-06-14T02:07:08;2.13;;;1.50;;
80249;SDS011;69561;37.974;23.708;2023-06-14T02:09:34;2.35;;;1.63;;
80249;SDS011;69561;37.974;23.708;2023-06-14T02:12:00;1.60;;;1.50;;
80249;SDS011;69561;37.974;23.708;2023-06-14T02:14:26;2.03;;;1.67;;
80249;SDS011;69561;37.974;23.708;2023-06-14T02:16:52;2.10;;;1.60;;
80249;SDS011;69561;37.974;23.708;2023-06-14T02:19:18;3.25;;;1.75;;
80249;SDS011;69561;37.974;23.708;2023-06-14T02:21:46;2.00;;;1.63;;
80249;SDS011;69561;37.974;23.708;2023-06-14T02:24:12;2.28;;;1.60;;
80249;SDS011;69561;37.974;23.708;2023-06-14T02:26:38;2.53;;;1.75;;
80249;SDS011;69561;37.974;23.708;2023-06-14T02:29:06;4.03;;;1.70;;
80249;SDS011;69561;37.974;23.708;2023-06-14T02:31:34;3.72;;;1.50;;
80249;SDS011;69561;37.974;23.708;2023-06-14T02:34:00;1.70;;;1.50;;
80249;SDS011;69561;37.974;23.708;2023-06-14T02:36:27;3.53;;;1.95;;
80249;SDS011;69561;37.974;23.708;2023-06-14T02:38:55;3.25;;;1.77;;
80249;SDS011;69561;37.974;23.708;2023-06-14T02:41:22;2.67;;;1.70;;
80249;SDS011;69561;37.974;23.708;2023-06-14T02:43:49;5.45;;;1.70;;
80249;SDS011;69561;37.974;23.708;2023-06-14T02:46:15;2.08;;;1.60;;
80249;SDS011;69561;37.974;23.708;2023-06-14T02:48:41;1.67;;;1.50;;
80249;SDS011;69561;37.974;23.708;2023-06-14T02:51:06;2.47;;;1.80;;
80249;SDS011;69561;37.974;23.708;2023-06-14T02:53:33;1.80;;;1.70;;
80249;SDS011;69561;37.974;23.708;2023-06-14T02:55:59;1.80;;;1.52;;
80249;SDS011;69561;37.974;23.708;2023-06-14T02:58:26;3.25;;;1.70;;
80249;SDS011;69561;37.974;23.708;2023-06-14T03:00:51;2.45;;;1.77;;
80249;SDS011;69561;37.974;23.708;2023-06-14T03:03:18;2.55;;;1.60;;
80249;SDS011;69561;37.974;23.708;2023-06-14T03:05:46;2.50;;;1.58;;
80249;SDS011;69561;37.974;23.708;2023-06-14T03:08:17;2.10;;;1.70;;
80249;SDS011;69561;37.974;23.708;2023-06-14T03:10:45;3.78;;;1.50;;
80249;SDS011;69561;37.974;23.708;2023-06-14T03:13:11;2.78;;;1.75;;
80249;SDS011;69561;37.974;23.708;2023-06-14T03:15:47;1.55;;;1.30;;
80249;SDS011;69561;37.974;23.708;2023-06-14T03:18:15;1.60;;;1.50;;
80249;SDS011;69561;37.974;23.708;2023-06-14T03:20:42;2.70;;;1.80;;
80249;SDS011;69561;37.974;23.708;2023-06-14T03:23:08;2.85;;;1.45;;
80249;SDS011;69561;37.974;23.708;2023-06-14T03:25:34;1.83;;;1.60;;
80249;SDS011;69561;37.974;23.708;2023-06-14T03:28:03;2.20;;;1.67;;
80249;SDS011;69561;37.974;23.708;2023-06-14T03:30:30;2.00;;;1.60;;
80249;SDS011;69561;37.974;23.708;2023-06-14T03:32:56;2.50;;;1.40;;
80249;SDS011;69561;37.974;23.708;2023-06-14T03:35:23;1.88;;;1.60;;
80249;SDS011;69561;37.974;23.708;2023-06-14T03:37:49;1.80;;;1.65;;
80249;SDS011;69561;37.974;23.708;2023-06-14T03:40:17;2.65;;;2.00;;
80249;SDS011;69561;37.974;23.708;2023-06-14T03:42:45;2.83;;;1.67;;
80249;SDS011;69561;37.974;23.708;2023-06-14T03:45:10;3.67;;;2.08;;
80249;SDS011;69561;37.974;23.708;2023-06-14T03:47:36;3.65;;;2.20;;
80249;SDS011;69561;37.974;23.708;2023-06-14T03:50:03;4.63;;;2.53;;
80249;SDS011;69561;37.974;23.708;2023-06-14T03:52:29;8.05;;;2.58;;
80249;SDS011;69561;37.974;23.708;2023-06-14T03:54:56;3.90;;;2.33;;
80249;SDS011;69561;37.974;23.708;2023-06-14T03:57:23;6.10;;;2.47;;
80249;SDS011;69561;37.974;23.708;2023-06-14T03:59:48;4.35;;;2.05;;
80249;SDS011;69561;37.974;23.708;2023-06-14T04:02:14;9.65;;;2.53;;
80249;SDS011;69561;37.974;23.708;2023-06-14T04:04:41;6.18;;;2.50;;
80249;SDS011;69561;37.974;23.708;2023-06-14T04:07:09;7.93;;;2.40;;
80249;SDS011;69561;37.974;23.708;2023-06-14T04:09:39;9.93;;;2.47;;
80249;SDS011;69561;37.974;23.708;2023-06-14T04:12:05;7.05;;;2.63;;
80249;SDS011;69561;37.974;23.708;2023-06-14T04:14:32;5.75;;;2.28;;
80249;SDS011;69561;37.974;23.708;2023-06-14T04:16:58;8.15;;;2.40;;
80249;SDS011;69561;37.974;23.708;2023-06-14T04:19:24;6.68;;;2.38;;
80249;SDS011;69561;37.974;23.708;2023-06-14T04:21:50;8.55;;;2.30;;
80249;SDS011;69561;37.974;23.708;2023-06-14T04:24:15;7.45;;;2.28;;
80249;SDS011;69561;37.974;23.708;2023-06-14T04:26:41;5.57;;;2.30;;
80249;SDS011;69561;37.974;23.708;2023-06-14T04:29:10;5.22;;;2.20;;
80249;SDS011;69561;37.974;23.708;2023-06-14T04:31:39;8.38;;;2.65;;
80249;SDS011;69561;37.974;23.708;2023-06-14T04:34:05;4.10;;;2.20;;
80249;SDS011;69561;37.974;23.708;2023-06-14T04:36:35;5.07;;;2.13;;
80249;SDS011;69561;37.974;23.708;2023-06-14T04:39:04;3.70;;;1.88;;
80249;SDS011;69561;37.974;23.708;2023-06-14T04:41:30;4.00;;;2.22;;
80249;SDS011;69561;37.974;23.708;2023-06-14T04:44:00;4.20;;;2.28;;
80249;SDS011;69561;37.974;23.708;2023-06-14T04:46:29;3.38;;;2.03;;
80249;SDS011;69561;37.974;23.708;2023-06-14T04:48:57;3.03;;;2.03;;
80249;SDS011;69561;37.974;23.708;2023-06-14T04:51:27;7.32;;;2.45;;
80249;SDS011;69561;37.974;23.708;2023-06-14T04:53:55;3.72;;;2.20;;
80249;SDS011;69561;37.974;23.708;2023-06-14T04:56:24;5.85;;;2.30;;
80249;SDS011;69561;37.974;23.708;2023-06-14T04:58:51;3.97;;;2.00;;
80249;SDS011;69561;37.974;23.708;2023-06-14T05:01:18;4.05;;;2.10;;
80249;SDS011;69561;37.974;23.708;2023-06-14T05:03:45;4.75;;;2.30;;
80249;SDS011;69561;37.974;23.708;2023-06-14T05:06:13;5.10;;;2.13;;
80249;SDS011;69561;37.974;23.708;2023-06-14T05:08:40;4.03;;;2.17;;
80249;SDS011;69561;37.974;23.708;2023-06-14T05:11:06;3.47;;;1.83;;
80249;SDS011;69561;37.974;23.708;2023-06-14T05:13:32;4.10;;;1.85;;
80249;SDS011;69561;37.974;23.708;2023-06-14T05:15:59;3.58;;;2.05;;
80249;SDS011;69561;37.974;23.708;2023-06-14T05:18:25;4.18;;;1.92;;
80249;SDS011;69561;37.974;23.708;2023-06-14T05:20:51;3.45;;;1.70;;
80249;SDS011;69561;37.974;23.708;2023-06-14T05:23:17;3.65;;;1.90;;
80249;SDS011;69561;37.974;23.708;2023-06-14T05:25:43;2.25;;;1.55;;
80249;SDS011;69561;37.974;23.708;2023-06-14T05:28:10;7.38;;;2.20;;
80249;SDS011;69561;37.974;23.708;2023-06-14T05:30:37;2.78;;;1.83;;
80249;SDS011;69561;37.974;23.708;2023-06-14T05:33:03;4.35;;;2.10;;
80249;SDS011;69561;37.974;23.708;2023-06-14T05:35:29;2.85;;;1.80;;
80249;SDS011;69561;37.974;23.708;2023-06-14T05:37:55;3.67;;;1.88;;
80249;SDS011;69561;37.974;23.708;2023-06-14T05:40:21;4.50;;;1.90;;
80249;SDS011;69561;37.974;23.708;2023-06-14T05:42:47;1.98;;;1.60;;
80249;SDS011;69561;37.974;23.708;2023-06-14T05:45:12;2.90;;;1.75;;
80249;SDS011;69561;37.974;23.708;2023-06-14T05:47:40;4.40;;;1.83;;
80249;SDS011;69561;37.974;23.708;2023-06-14T05:50:06;1.90;;;1.60;;
80249;SDS011;69561;37.974;23.708;2023-06-14T05:52:32;1.45;;;1.33;;
80249;SDS011;69561;37.974;23.708;2023-06-14T05:54:58;3.60;;;1.40;;
80249;SDS011;69561;37.974;23.708;2023-06-14T05:57:26;3.25;;;1.50;;
80249;SDS011;69561;37.974;23.708;2023-06-14T05:59:51;1.48;;;1.38;;
80249;SDS011;69561;37.974;23.708;2023-06-14T06:02:17;3.85;;;1.63;;
80249;SDS011;69561;37.974;23.708;2023-06-14T06:04:43;1.65;;;1.38;;
80249;SDS011;69561;37.974;23.708;2023-06-14T06:07:08;1.50;;;1.27;;
80249;SDS011;69561;37.974;23.708;2023-06-14T06:09:35;1.50;;;1.40;;
80249;SDS011;69561;37.974;23.708;2023-06-14T06:12:00;2.17;;;1.42;;
80249;SDS011;69561;37.974;23.708;2023-06-14T06:14:26;2.30;;;1.30;;
80249;SDS011;69561;37.974;23.708;2023-06-14T06:16:53;3.30;;;1.40;;
80249;SDS011;69561;37.974;23.708;2023-06-14T06:19:19;1.90;;;1.10;;
80249;SDS011;69561;37.974;23.708;2023-06-14T06:21:45;2.28;;;1.17;;
80249;SDS011;69561;37.974;23.708;2023-06-14T06:24:11;2.78;;;1.20;;
80249;SDS011;69561;37.974;23.708;2023-06-14T06:26:36;1.30;;;1.20;;
80249;SDS011;69561;37.974;23.708;2023-06-14T06:29:03;1.75;;;1.20;;
80249;SDS011;69561;37.974;23.708;2023-06-14T06:31:29;1.88;;;1.25;;
80249;SDS011;69561;37.974;23.708;2023-06-14T06:33:55;1.98;;;1.20;;
80249;SDS011;69561;37.974;23.708;2023-06-14T06:36:27;1.20;;;1.05;;
80249;SDS011;69561;37.974;23.708;2023-06-14T06:38:53;2.42;;;1.17;;
80249;SDS011;69561;37.974;23.708;2023-06-14T06:41:18;2.63;;;1.20;;
80249;SDS011;69561;37.974;23.708;2023-06-14T06:43:44;1.58;;;1.20;;
80249;SDS011;69561;37.974;23.708;2023-06-14T06:46:10;1.42;;;1.00;;
80249;SDS011;69561;37.974;23.708;2023-06-14T06:48:35;2.90;;;1.10;;
80249;SDS011;69561;37.974;23.708;2023-06-14T06:51:01;2.38;;;1.27;;
80249;SDS011;69561;37.974;23.708;2023-06-14T06:53:27;1.83;;;1.10;;
80249;SDS011;69561;37.974;23.708;2023-06-14T06:55:53;1.98;;;1.13;;
80249;SDS011;69561;37.974;23.708;2023-06-14T06:58:18;1.55;;;1.13;;
80249;SDS011;69561;37.974;23.708;2023-06-14T07:00:47;1.20;;;0.82;;
80249;SDS011;69561;37.974;23.708;2023-06-14T07:03:12;1.20;;;0.90;;
80249;SDS011;69561;37.974;23.708;2023-06-14T07:05:38;0.80;;;0.80;;
80249;SDS011;69561;37.974;23.708;2023-06-14T07:08:04;1.05;;;0.95;;
80249;SDS011;69561;37.974;23.708;2023-06-14T07:10:30;1.35;;;1.00;;
80249;SDS011;69561;37.974;23.708;2023-06-14T07:12:56;1.50;;;1.10;;
80249;SDS011;69561;37.974;23.708;2023-06-14T07:15:23;5.38;;;1.27;;
80249;SDS011;69561;37.974;23.708;2023-06-14T07:17:49;1.23;;;1.00;;
80249;SDS011;69561;37.974;23.708;2023-06-14T07:20:20;1.55;;;0.90;;
80249;SDS011;69561;37.974;23.708;2023-06-14T07:22:46;1.00;;;0.90;;
80249;SDS011;69561;37.974;23.708;2023-06-14T07:25:12;1.80;;;1.00;;
80249;SDS011;69561;37.974;23.708;2023-06-14T07:27:39;1.42;;;1.05;;
80249;SDS011;69561;37.974;23.708;2023-06-14T07:30:08;1.25;;;0.93;;
80249;SDS011;69561;37.974;23.708;2023-06-14T07:32:35;2.72;;;1.00;;
80249;SDS011;69561;37.974;23.708;2023-06-14T07:35:01;1.65;;;1.00;;
80249;SDS011;69561;37.974;23.708;2023-06-14T07:37:28;1.33;;;1.10;;
80249;SDS011;69561;37.974;23.708;2023-06-14T07:39:54;1.00;;;0.90;;
80249;SDS011;69561;37.974;23.708;2023-06-14T07:42:19;2.42;;;0.90;;
80249;SDS011;69561;37.974;23.708;2023-06-14T07:44:45;0.80;;;0.80;;
80249;SDS011;69561;37.974;23.708;2023-06-14T07:47:11;1.02;;;0.93;;
80249;SDS011;69561;37.974;23.708;2023-06-14T07:49:40;1.17;;;0.90;;
80249;SDS011;69561;37.974;23.708;2023-06-14T07:52:07;1.20;;;0.95;;
80249;SDS011;69561;37.974;23.708;2023-06-14T07:54:32;1.17;;;1.00;;
80249;SDS011;69561;37.974;23.708;2023-06-14T07:56:58;1.05;;;1.00;;
80249;SDS011;69561;37.974;23.708;2023-06-14T07:59:25;1.05;;;0.95;;
80249;SDS011;69561;37.974;23.708;2023-06-14T08:01:51;2.20;;;1.23;;
80249;SDS011;69561;37.974;23.708;2023-06-14T08:04:17;2.25;;;1.30;;
80249;SDS011;69561;37.974;23.708;2023-06-14T08:06:43;1.45;;;1.23;;
80249;SDS011;69561;37.974;23.708;2023-06-14T08:09:10;1.35;;;1.20;;
80249;SDS011;69561;37.974;23.708;2023-06-14T08:11:37;1.95;;;1.70;;
80249;SDS011;69561;37.974;23.708;2023-06-14T08:14:03;1.50;;;1.40;;
80249;SDS011;69561;37.974;23.708;2023-06-14T08:16:32;2.22;;;1.60;;
80249;SDS011;69561;37.974;23.708;2023-06-14T08:18:58;3.22;;;1.80;;
80249;SDS011;69561;37.974;23.708;2023-06-14T08:21:23;2.13;;;1.80;;
80249;SDS011;69561;37.974;23.708;2023-06-14T08:23:53;3.83;;;2.08;;
80249;SDS011;69561;37.974;23.708;2023-06-14T08:26:20;2.15;;;1.60;;
80249;SDS011;69561;37.974;23.708;2023-06-14T08:28:46;1.65;;;1.55;;
80249;SDS011;69561;37.974;23.708;2023-06-14T08:31:11;1.95;;;1.80;;
80249;SDS011;69561;37.974;23.708;2023-06-14T08:33:37;1.67;;;1.55;;
80249;SDS011;69561;37.974;23.708;2023-06-14T08:36:11;2.28;;;1.90;;
80249;SDS011;69561;37.974;23.708;2023-06-14T08:38:37;1.80;;;1.70;;
80249;SDS011;69561;37.974;23.708;2023-06-14T08:41:03;1.98;;;1.80;;
80249;SDS011;69561;37.974;23.708;2023-06-14T08:43:33;2.05;;;1.85;;
80249;SDS011;69561;37.974;23.708;2023-06-14T08:46:03;2.42;;;1.88;;
80249;SDS011;69561;37.974;23.708;2023-06-14T08:48:31;2.33;;;2.13;;
80249;SDS011;69561;37.974;23.708;2023-06-14T08:51:01;3.17;;;2.88;;
80249;SDS011;69561;37.974;23.708;2023-06-14T08:53:32;4.25;;;3.40;;
80249;SDS011;69561;37.974;23.708;2023-06-14T08:56:02;3.50;;;2.60;;
80249;SDS011;69561;37.974;23.708;2023-06-14T08:58:30;2.88;;;2.25;;
80249;SDS011;69561;37.974;23.708;2023-06-14T09:00:58;3.50;;;2.50;;
80249;SDS011;69561;37.974;23.708;2023-06-14T09:03:27;2.97;;;2.45;;
80249;SDS011;69561;37.974;23.708;2023-06-14T09:05:59;2.60;;;2.35;;
80249;SDS011;69561;37.974;23.708;2023-06-14T09:08:26;2.67;;;2.35;;
80249;SDS011;69561;37.974;23.708;2023-06-14T09:10:55;4.13;;;2.80;;
80249;SDS011;69561;37.974;23.708;2023-06-14T09:13:21;2.63;;;2.40;;
80249;SDS011;69561;37.974;23.708;2023-06-14T09:15:47;2.50;;;2.30;;
80249;SDS011;69561;37.974;23.708;2023-06-14T09:18:12;3.90;;;2.40;;
80249;SDS011;69561;37.974;23.708;2023-06-14T09:20:39;2.45;;;2.25;;
80249;SDS011;69561;37.974;23.708;2023-06-14T09:23:06;3.55;;;2.33;;
80249;SDS011;69561;37.974;23.708;2023-06-14T09:25:33;2.75;;;2.30;;
80249;SDS011;69561;37.974;23.708;2023-06-14T09:28:08;2.40;;;2.20;;
80249;SDS011;69561;37.974;23.708;2023-06-14T09:30:35;3.25;;;2.30;;
80249;SDS011;69561;37.974;23.708;2023-06-14T09:33:02;2.42;;;2.03;;
80249;SDS011;69561;37.974;23.708;2023-06-14T09:35:28;2.97;;;1.73;;
80249;SDS011;69561;37.974;23.708;2023-06-14T09:37:56;2.10;;;1.90;;
80249;SDS011;69561;37.974;23.708;2023-06-14T09:40:21;2.10;;;1.88;;
80249;SDS011;69561;37.974;23.708;2023-06-14T09:42:47;1.95;;;1.55;;
80249;SDS011;69561;37.974;23.708;2023-06-14T09:45:15;2.67;;;1.67;;
80249;SDS011;69561;37.974;23.708;2023-06-14T09:47:47;1.85;;;1.75;;
80249;SDS011;69561;37.974;23.708;2023-06-14T09:50:14;2.47;;;1.63;;
80249;SDS011;69561;37.974;23.708;2023-06-14T09:52:40;3.67;;;1.52;;
80249;SDS011;69561;37.974;23.708;2023-06-14T09:55:12;1.70;;;1.60;;
80249;SDS011;69561;37.974;23.708;2023-06-14T09:57:40;1.55;;;1.45;;
80249;SDS011;69561;37.974;23.708;2023-06-14T10:00:08;2.10;;;1.52;;
80249;SDS011;69561;37.974;23.708;2023-06-14T10:02:37;5.05;;;1.55;;
80249;SDS011;69561;37.974;23.708;2023-06-14T10:05:08;2.53;;;1.45;;
80249;SDS011;69561;37.974;23.708;2023-06-14T10:10:24;3.60;;;1.75;;
80249;SDS011;69561;37.974;23.708;2023-06-14T10:12:50;4.93;;;1.50;;
80249;SDS011;69561;37.974;23.708;2023-06-14T10:15:23;2.03;;;1.55;;
80249;SDS011;69561;37.974;23.708;2023-06-14T10:18:14;3.65;;;1.50;;
80249;SDS011;69561;37.974;23.708;2023-06-14T10:23:44;1.83;;;1.40;;
80249;SDS011;69561;37.974;23.708;2023-06-14T10:26:17;2.08;;;1.40;;
80249;SDS011;69561;37.974;23.708;2023-06-14T10:28:56;1.70;;;1.40;;
80249;SDS011;69561;37.974;23.708;2023-06-14T10:34:11;1.45;;;1.35;;
80249;SDS011;69561;37.974;23.708;2023-06-14T10:36:38;2.85;;;1.55;;
80249;SDS011;69561;37.974;23.708;2023-06-14T10:39:14;1.40;;;1.10;;
80249;SDS011;69561;37.974;23.708;2023-06-14T10:41:42;1.90;;;1.70;;
80249;SDS011;69561;37.974;23.708;2023-06-14T10:46:48;2.42;;;1.50;;
80249;SDS011;69561;37.974;23.708;2023-06-14T10:49:36;1.52;;;1.20;;
80249;SDS011;69561;37.974;23.708;2023-06-14T10:52:07;1.70;;;1.35;;
80249;SDS011;69561;37.974;23.708;2023-06-14T10:54:37;1.45;;;1.35;;
80249;SDS011;69561;37.974;23.708;2023-06-14T10:57:06;2.17;;;1.45;;
80249;SDS011;69561;37.974;23.708;2023-06-14T10:59:35;1.38;;;1.25;;
80249;SDS011;69561;37.974;23.708;2023-06-14T11:04:47;2.63;;;1.50;;
80249;SDS011;69561;37.974;23.708;2023-06-14T11:07:34;8.63;;;1.60;;
80249;SDS011;69561;37.974;23.708;2023-06-14T11:12:58;2.22;;;1.40;;
80249;SDS011;69561;37.974;23.708;2023-06-14T11:15:31;1.67;;;1.55;;
80249;SDS011;69561;37.974;23.708;2023-06-14T11:17:59;4.20;;;1.55;;
80249;SDS011;69561;37.974;23.708;2023-06-14T11:20:29;6.00;;;1.50;;
80249;SDS011;69561;37.974;23.708;2023-06-14T11:22:57;2.17;;;1.60;;
80249;SDS011;69561;37.974;23.708;2023-06-14T11:25:23;2.95;;;1.58;;
80249;SDS011;69561;37.974;23.708;2023-06-14T11:27:49;2.47;;;1.50;;
80249;SDS011;69561;37.974;23.708;2023-06-14T11:30:16;4.88;;;1.80;;
80249;SDS011;69561;37.974;23.708;2023-06-14T11:32:42;2.10;;;1.40;;
80249;SDS011;69561;37.974;23.708;2023-06-14T11:35:11;1.80;;;1.70;;
80249;SDS011;69561;37.974;23.708;2023-06-14T11:37:36;3.00;;;1.67;;
80249;SDS011;69561;37.974;23.708;2023-06-14T11:40:07;3.05;;;1.70;;
80249;SDS011;69561;37.974;23.708;2023-06-14T11:42:35;3.95;;;1.40;;
80249;SDS011;69561;37.974;23.708;2023-06-14T11:45:01;1.70;;;1.33;;
80249;SDS011;69561;37.974;23.708;2023-06-14T11:47:31;1.63;;;1.30;;
80249;SDS011;69561;37.974;23.708;2023-06-14T11:49:58;1.52;;;1.42;;
80249;SDS011;69561;37.974;23.708;2023-06-14T11:52:25;1.60;;;1.50;;
80249;SDS011;69561;37.974;23.708;2023-06-14T11:54:51;1.80;;;1.50;;
80249;SDS011;69561;37.974;23.708;2023-06-14T11:57:18;1.88;;;1.55;;
80249;SDS011;69561;37.974;23.708;2023-06-14T11:59:44;2.40;;;1.30;;
80249;SDS011;69561;37.974;23.708;2023-06-14T12:02:14;1.90;;;1.15;;
80249;SDS011;69561;37.974;23.708;2023-06-14T12:04:40;1.60;;;1.30;;
80249;SDS011;69561;37.974;23.708;2023-06-14T12:07:13;1.65;;;1.27;;
80249;SDS011;69561;37.974;23.708;2023-06-14T12:12:20;4.20;;;1.60;;
80249;SDS011;69561;37.974;23.708;2023-06-14T12:14:47;3.13;;;1.40;;
80249;SDS011;69561;37.974;23.708;2023-06-14T12:17:16;1.38;;;1.20;;
80249;SDS011;69561;37.974;23.708;2023-06-14T12:19:43;1.50;;;1.40;;
80249;SDS011;69561;37.974;23.708;2023-06-14T12:22:10;2.88;;;1.42;;
80249;SDS011;69561;37.974;23.708;2023-06-14T12:24:36;2.70;;;1.40;;
80249;SDS011;69561;37.974;23.708;2023-06-14T12:27:06;3.35;;;1.83;;
80249;SDS011;69561;37.974;23.708;2023-06-14T12:29:32;2.25;;;1.70;;
80249;SDS011;69561;37.974;23.708;2023-06-14T12:31:58;3.55;;;1.52;;
80249;SDS011;69561;37.974;23.708;2023-06-14T12:34:24;1.60;;;1.50;;
80249;SDS011;69561;37.974;23.708;2023-06-14T12:36:52;2.45;;;1.63;;
80249;SDS011;69561;37.974;23.708;2023-06-14T12:39:18;1.70;;;1.60;;
80249;SDS011;69561;37.974;23.708;2023-06-14T12:41:45;2.67;;;1.50;;
80249;SDS011;69561;37.974;23.708;2023-06-14T12:44:12;2.08;;;1.35;;
80249;SDS011;69561;37.974;23.708;2023-06-14T12:46:38;2.67;;;1.27;;
80249;SDS011;69561;37.974;23.708;2023-06-14T12:49:05;1.65;;;1.55;;
80249;SDS011;69561;37.974;23.708;2023-06-14T12:51:32;3.20;;;1.60;;
80249;SDS011;69561;37.974;23.708;2023-06-14T12:53:58;2.95;;;1.30;;
80249;SDS011;69561;37.974;23.708;2023-06-14T12:56:24;1.33;;;1.23;;
80249;SDS011;69561;37.974;23.708;2023-06-14T12:58:51;1.42;;;1.33;;
80249;SDS011;69561;37.974;23.708;2023-06-14T13:01:17;4.53;;;1.60;;
80249;SDS011;69561;37.974;23.708;2023-06-14T13:03:43;1.95;;;1.40;;
80249;SDS011;69561;37.974;23.708;2023-06-14T13:06:09;1.67;;;1.30;;
80249;SDS011;69561;37.974;23.708;2023-06-14T13:08:38;4.35;;;1.27;;
80249;SDS011;69561;37.974;23.708;2023-06-14T13:11:03;2.80;;;1.50;;
80249;SDS011;69561;37.974;23.708;2023-06-14T13:13:29;5.22;;;1.58;;
80249;SDS011;69561;37.974;23.708;2023-06-14T13:15:55;4.45;;;1.65;;
80249;SDS011;69561;37.974;23.708;2023-06-14T13:18:20;6.63;;;1.50;;
80249;SDS011;69561;37.974;23.708;2023-06-14T13:21:05;2.28;;;1.30;;
80249;SDS011;69561;37.974;23.708;2023-06-14T13:23:30;2.38;;;1.27;;
80249;SDS011;69561;37.974;23.708;2023-06-14T13:25:56;2.25;;;1.30;;
80249;SDS011;69561;37.974;23.708;2023-06-14T13:28:22;2.10;;;1.35;;
80249;SDS011;69561;37.974;23.708;2023-06-14T13:30:47;3.38;;;1.27;;
80249;SDS011;69561;37.974;23.708;2023-06-14T13:33:13;1.35;;;1.15;;
80249;SDS011;69561;37.974;23.708;2023-06-14T13:35:39;1.58;;;1.30;;
80249;SDS011;69561;37.974;23.708;2023-06-14T13:38:05;2.65;;;1.40;;
80249;SDS011;69561;37.974;23.708;2023-06-14T13:40:30;4.82;;;1.17;;
80249;SDS011;69561;37.974;23.708;2023-06-14T13:42:56;1.52;;;1.35;;
80249;SDS011;69561;37.974;23.708;2023-06-14T13:45:22;1.58;;;1.40;;
80249;SDS011;69561;37.974;23.708;2023-06-14T13:47:48;1.73;;;1.30;;
80249;SDS011;69561;37.974;23.708;2023-06-14T13:50:13;4.78;;;1.52;;
80249;SDS011;69561;37.974;23.708;2023-06-14T13:52:40;1.48;;;1.38;;
80249;SDS011;69561;37.974;23.708;2023-06-14T13:55:06;2.90;;;1.30;;
80249;SDS011;69561;37.974;23.708;2023-06-14T13:57:32;1.35;;;1.10;;
80249;SDS011;69561;37.974;23.708;2023-06-14T13:59:58;3.08;;;1.30;;
80249;SDS011;69561;37.974;23.708;2023-06-14T14:02:26;1.15;;;1.05;;
80249;SDS011;69561;37.974;23.708;2023-06-14T14:04:53;2.28;;;1.20;;
80249;SDS011;69561;37.974;23.708;2023-06-14T14:07:20;1.67;;;1.30;;
80249;SDS011;69561;37.974;23.708;2023-06-14T14:09:47;1.40;;;1.30;;
80249;SDS011;69561;37.974;23.708;2023-06-14T14:12:13;1.25;;;1.15;;
80249;SDS011;69561;37.974;23.708;2023-06-14T14:14:39;1.27;;;1.13;;
80249;SDS011;69561;37.974;23.708;2023-06-14T14:17:05;1.35;;;1.17;;
80249;SDS011;69561;37.974;23.708;2023-06-14T14:19:32;1.63;;;1.23;;
80249;SDS011;69561;37.974;23.708;2023-06-14T14:21:58;1.48;;;1.02;;
80249;SDS011;69561;37.974;23.708;2023-06-14T14:24:24;1.90;;;1.00;;
80249;SDS011;69561;37.974;23.708;2023-06-14T14:26:50;1.52;;;1.02;;
80249;SDS011;69561;37.974;23.708;2023-06-14T14:29:18;2.97;;;1.20;;
80249;SDS011;69561;37.974;23.708;2023-06-14T14:31:44;1.50;;;1.08;;
80249;SDS011;69561;37.974;23.708;2023-06-14T14:34:10;1.20;;;1.10;;
80249;SDS011;69561;37.974;23.708;2023-06-14T14:36:36;3.03;;;1.20;;
80249;SDS011;69561;37.974;23.708;2023-06-14T14:39:03;1.00;;;1.00;;
80249;SDS011;69561;37.974;23.708;2023-06-14T14:41:29;1.80;;;1.30;;
80249;SDS011;69561;37.974;23.708;2023-06-14T14:43:55;1.27;;;1.10;;
80249;SDS011;69561;37.974;23.708;2023-06-14T14:46:20;1.33;;;1.10;;
80249;SDS011;69561;37.974;23.708;2023-06-14T14:48:46;1.00;;;1.00;;
80249;SDS011;69561;37.974;23.708;2023-06-14T14:51:12;1.58;;;1.02;;
80249;SDS011;69561;37.974;23.708;2023-06-14T14:53:38;2.63;;;1.20;;
80249;SDS011;69561;37.974;23.708;2023-06-14T14:56:03;3.67;;;1.10;;
80249;SDS011;69561;37.974;23.708;2023-06-14T14:58:29;1.20;;;1.08;;